메인 페이지
METAR-TAF:

METAR-TAF

공항 :

치타, 러시아

위도: 52-05N, 경도: 113-29E, 고도: 685m

현재 날씨관측

예보는 29분 전, 05:00시(UTC)에 발표되었습니다.
동북동12kt
온도 11°C
습도 43%
기압 1003 hPa
시정 10km 이상

METAR: UIAA 130500Z 07006MPS 9999 NSC 11/M01 Q1003 R29/CLRD70 NOSIG RMK QFE694/0926

시각: 14:29 (05:29 UTC)

예보

예보는 3 시간 29분 전, 02:00시(UTC)에 발표되었습니다.
예보 대상 시간: 13일 03시부터 14일 03시까지 (UTC)
6kt, 순간 최대 풍속 16kt
시정 10km 이상
고도 3000ft 상공 구름 많음, 적란운.
일시적
13일 03시부터 14일 03시까지 (UTC)
12kt, 순간 최대 풍속 23kt
시정: 3100m
고도 1400ft 상공 흐림, 적란운.
약한소나기, 눈,

TAF: UIAA 130200Z 1303/1403 08003G08MPS 9999 BKN030CB TEMPO 1303/1403 01006G12MPS 3100 -SHRASN OVC014CB

4,000개 이상의 공항 관측 자료 및 예보 (METAR 및 TAF 보고).

지도상에서 검색 가능한 기상관측소가 노란 점과 빨간 점으로 표시되어 있습니다.

기상관측소 명을 보려면 표시 위로 마우스를 이동하세요.

날씨 관측과 예보를 보려면 클릭하세요.

지도 변경 : 확대하려면 엑스 표시가 있는 녹색 버튼, 축소하려면 빼기 표시가 있는 녹색 버튼, 다음 페이지의 지도를 보려면 녹색 화살표를 클릭하세요.


METAR-TAF: